Pampa / Mesa Vista, TX

7:23 PM CDT on March 28, 2017 (GMT -0500)
Pampa / Mesa Vista

Weather History for KBPC - March, 2012

Change the Weather History Date:

Friday, March 16, 2012

  Actual Average (KBGD) Record (KBGD)
Temperature  
Mean Temperature 69 °F -  
Max Temperature 87 °F 59 °F 90 °F (2017)
Min Temperature 51 °F 35 °F 19 °F (1959)
Cooling Degree Days 4    
Growing Degree Days 19 (Base 50)    
Moisture  
Dew Point 40 °F    
Average Humidity 53    
Maximum Humidity 100    
Minimum Humidity 6    
Precipitation  
Precipitation 0.00 in - - ()
Sea Level Pressure  
Sea Level Pressure 29.90 in    
Wind  
Wind Speed 14 mph (SSW)    
Max Wind Speed 31 mph    
Max Gust Speed 40 mph    
Visibility 10 miles    
Events      
Averages and records for this station are not official NWS values.
T = Trace of Precipitation, MM = Missing Value Source: NWS Daily Summary

Daily Weather History Graph

Daily Weather History Graph

Search for Another Location

Airport or City:

Trip Planner

Search our weather history database for the weather conditions in past years. The results will help you decide how hot, cold, wet, or windy it might be!

Date:

Astronomy

Mar. 16, 2012 Rise Set
Actual Time 7:52 AM CDT 7:52 PM CDT
Civil Twilight 7:27 AM CDT 8:18 PM CDT
Nautical Twilight 6:57 AM CDT 8:48 PM CDT
Astronomical Twilight 6:27 AM CDT 9:18 PM CDT
Moon 4:02 AM CDT (3/16) 2:24 PM CDT (3/16)
Length of Visible Light 12h 51m
Length of Day
12h 00m
Waning Crescent, 32% of the Moon is Illuminated
Mar 16
Waning Crescent
Mar 22
New
Mar 30
First Quarter
Apr 6
Full
Apr 13
Last Quarter

Hourly Weather History & Observations

Time (CDT) Temp. Dew Point Humidity Pressure Visibility Wind Dir Wind Speed Gust Speed Precip Events Conditions
12:15 AM 62.6 °F 51.8 °F 68% 29.99 in 10.0 mi South 16.1 mph - N/A   Clear
12:35 AM 62.6 °F 53.6 °F 72% 29.99 in 10.0 mi South 16.1 mph 21.9 mph N/A   Clear
12:55 AM 60.8 °F 53.6 °F 77% 29.98 in 10.0 mi South 13.8 mph - N/A   Clear
1:15 AM 62.6 °F 53.6 °F 72% 29.98 in 10.0 mi South 13.8 mph - N/A   Clear
1:35 AM 60.8 °F 55.4 °F 82% 29.98 in 10.0 mi South 12.7 mph 18.4 mph N/A   Clear
1:55 AM 60.8 °F 53.6 °F 77% 29.98 in 10.0 mi SW 11.5 mph - N/A   Clear
2:15 AM 59.0 °F 53.6 °F 82% 29.98 in 10.0 mi SW 10.4 mph - N/A   Clear
2:35 AM 55.4 °F 53.6 °F 94% 29.98 in 10.0 mi SW 6.9 mph - N/A   Clear
2:55 AM 57.2 °F 53.6 °F 88% 29.98 in 10.0 mi SSW 8.1 mph - N/A   Clear
3:15 AM 55.4 °F 53.6 °F 94% 29.98 in 10.0 mi SSW 4.6 mph - N/A   Clear
3:35 AM 53.6 °F 51.8 °F 94% 29.97 in 10.0 mi Calm Calm - N/A   Clear
3:55 AM 51.8 °F 50.0 °F 94% 29.97 in 10.0 mi Calm Calm - N/A   Clear
4:15 AM 55.4 °F 53.6 °F 94% 29.97 in 10.0 mi SW 10.4 mph - N/A   Clear
4:35 AM 57.2 °F 53.6 °F 88% 29.96 in 10.0 mi SW 13.8 mph 18.4 mph N/A   Clear
4:55 AM 57.2 °F 53.6 °F 88% 29.95 in 10.0 mi SW 18.4 mph - N/A   Clear
5:15 AM 57.2 °F 53.6 °F 88% 29.96 in 10.0 mi WSW 13.8 mph 20.7 mph N/A   Clear
5:35 AM 55.4 °F 53.6 °F 94% 29.97 in 10.0 mi SW 13.8 mph - N/A   Clear
5:55 AM 55.4 °F 53.6 °F 94% 29.96 in 7.0 mi SW 15.0 mph - N/A   Clear
6:15 AM 55.4 °F 53.6 °F 94% 29.96 in 7.0 mi SW 12.7 mph - N/A   Clear
6:35 AM 55.4 °F 53.6 °F 94% 29.95 in 7.0 mi SW 11.5 mph - N/A   Clear
6:55 AM 53.6 °F 53.6 °F 100% 29.95 in 7.0 mi SW 10.4 mph - N/A   Clear
7:15 AM 53.6 °F 53.6 °F 100% 29.96 in 7.0 mi SW 9.2 mph - N/A   Clear
7:35 AM 53.6 °F 51.8 °F 94% 29.96 in 7.0 mi SW 6.9 mph - N/A   Clear
7:55 AM 53.6 °F 51.8 °F 94% 29.97 in 7.0 mi Calm Calm - N/A   Clear
8:15 AM 53.6 °F 51.8 °F 94% 29.97 in 7.0 mi Calm Calm - N/A   Clear
8:35 AM 53.6 °F 51.8 °F 94% 29.97 in 10.0 mi SW 4.6 mph - N/A   Clear
8:55 AM 55.4 °F 51.8 °F 88% 29.98 in 10.0 mi South 3.5 mph - N/A   Clear
9:15 AM 57.2 °F 51.8 °F 82% 29.98 in 10.0 mi SSW 10.4 mph - N/A   Clear
9:35 AM 59.0 °F 50.0 °F 72% 29.97 in 10.0 mi SSW 13.8 mph - N/A   Clear
9:55 AM 60.8 °F 50.0 °F 68% 29.98 in 10.0 mi SSW 10.4 mph 19.6 mph N/A   Clear
11:15 AM 69.8 °F 41.0 °F 35% 29.96 in 10.0 mi WSW 11.5 mph - N/A   Clear
11:35 AM 73.4 °F 37.4 °F 27% 29.95 in 10.0 mi SW 12.7 mph 18.4 mph N/A   Clear
11:55 AM 73.4 °F 33.8 °F 23% 29.95 in 10.0 mi SSW 16.1 mph 20.7 mph N/A   Clear
12:15 PM 77.0 °F 33.8 °F 21% 29.94 in 10.0 mi SW 15.0 mph 21.9 mph N/A   Clear
12:35 PM 78.8 °F 30.2 °F 17% 29.93 in 10.0 mi WSW 15.0 mph 20.7 mph N/A   Clear
12:55 PM 80.6 °F 28.4 °F 15% 29.92 in 10.0 mi SSW 17.3 mph 23.0 mph N/A   Clear
1:15 PM 82.4 °F 24.8 °F 12% 29.91 in 10.0 mi SSW 17.3 mph 23.0 mph N/A   Clear
1:35 PM 82.4 °F 21.2 °F 10% 29.90 in 10.0 mi SW 16.1 mph 25.3 mph N/A   Clear
1:55 PM 84.2 °F 21.2 °F 10% 29.88 in 10.0 mi SSW 17.3 mph 27.6 mph N/A   Clear
2:15 PM 86.0 °F 19.4 °F 9% 29.87 in 10.0 mi SSW 20.7 mph 27.6 mph N/A   Clear
2:35 PM 86.0 °F 14.0 °F 7% 29.85 in 10.0 mi SSW 23.0 mph 32.2 mph N/A   Clear
2:55 PM 87.8 °F 14.0 °F 6% 29.84 in 10.0 mi SW 20.7 mph 31.1 mph N/A   Clear
3:15 PM 87.8 °F 14.0 °F 6% 29.83 in 10.0 mi SSW 26.5 mph 38.0 mph N/A   Clear
3:35 PM 87.8 °F 17.6 °F 8% 29.82 in 10.0 mi SW 21.9 mph 31.1 mph N/A   Clear
3:55 PM 87.8 °F 17.6 °F 8% 29.81 in 10.0 mi SSW 20.7 mph 33.4 mph N/A   Clear
4:15 PM 87.8 °F 21.2 °F 9% 29.80 in 10.0 mi SW 23.0 mph 32.2 mph N/A   Clear
4:35 PM 87.8 °F 23.0 °F 9% 29.80 in 10.0 mi SSW 27.6 mph 36.8 mph N/A   Clear
4:55 PM 87.8 °F 19.4 °F 8% 29.79 in 10.0 mi SSW 28.8 mph 35.7 mph N/A   Clear
5:15 PM 87.8 °F 17.6 °F 8% 29.78 in 10.0 mi SSW 24.2 mph 33.4 mph N/A   Clear
5:35 PM 87.8 °F 17.6 °F 8% 29.78 in 10.0 mi SSW 21.9 mph 29.9 mph N/A   Clear
5:55 PM 87.8 °F 17.6 °F 8% 29.77 in 10.0 mi SSW 25.3 mph 36.8 mph N/A   Clear
6:15 PM 86.0 °F 12.2 °F 6% 29.77 in 10.0 mi SSW 23.0 mph 31.1 mph N/A   Clear
6:35 PM 86.0 °F 15.8 °F 7% 29.76 in 10.0 mi SW 23.0 mph 33.4 mph N/A   Clear
6:55 PM 86.0 °F 14.0 °F 7% 29.77 in 10.0 mi SW 18.4 mph 28.8 mph N/A   Clear
7:15 PM 82.4 °F 17.6 °F 9% 29.78 in 10.0 mi South 26.5 mph 36.8 mph N/A   Clear
7:35 PM 77.0 °F 51.8 °F 41% 29.79 in 10.0 mi South 19.6 mph 34.5 mph N/A   Clear
7:55 PM 73.4 °F 53.6 °F 50% 29.80 in 10.0 mi South 25.3 mph 35.7 mph N/A   Clear
8:15 PM 71.6 °F 55.4 °F 57% 29.80 in 10.0 mi South 28.8 mph 40.3 mph N/A   Clear
8:35 PM 69.8 °F 55.4 °F 60% 29.80 in 10.0 mi South 24.2 mph 34.5 mph N/A   Clear
8:55 PM 69.8 °F 53.6 °F 56% 29.81 in 10.0 mi South 27.6 mph 39.1 mph N/A   Clear
9:15 PM 69.8 °F 53.6 °F 56% 29.81 in 10.0 mi South 31.1 mph 36.8 mph N/A   Clear
9:55 PM 66.2 °F 55.4 °F 68% 29.83 in 10.0 mi South 25.3 mph 39.1 mph N/A   Clear
10:15 PM 64.4 °F 55.4 °F 73% 29.84 in 10.0 mi South 25.3 mph 32.2 mph N/A   Clear
10:55 PM 64.4 °F 55.4 °F 73% 29.85 in 10.0 mi South 26.5 mph 33.4 mph N/A   Clear
11:15 PM 64.4 °F 55.4 °F 73% 29.86 in 10.0 mi South 25.3 mph 34.5 mph N/A   Clear
11:35 PM 64.4 °F 55.4 °F 73% 29.85 in 10.0 mi South 25.3 mph 35.7 mph N/A   Clear
11:55 PM 62.6 °F 55.4 °F 77% 29.85 in 10.0 mi South 25.3 mph 33.4 mph N/A   Clear